Time Latitude Longitude Accuracy (66% radius in meters) Altitude (meters) Speed (km/hour) Bearing (degrees) Battery (%) GPS flag
08:46:44 51.902450 107.656627 2 685.5 0 0 68 1 delete
08:46:33 51.902450 107.656627 2 685.5 0 0 68 1 delete
08:46:20 51.902516 107.656488 2 687 0 0 68 1 delete
08:46:10 51.902515 107.656493 1.5 687.90002441406 0.38999998569489 303.83239746094 68 1 delete
08:46:08 51.902501 107.656518 2 688.20001220703 1.1899999380112 287.38586425781 68 1 delete
08:46:00 51.902471 107.656676 2 687.29998779297 1.1999999284744 261.4306640625 68 1 delete
08:45:59 51.902478 107.656687 2 687.90002441406 1.7799999713898 259.37072753906 68 1 delete
08:45:54 51.902500 107.656817 2 689 1.6699999570847 257.09106445312 68 1 delete
08:45:49 51.902555 107.656964 2 688.5 1.5499999523163 245.06652832031 68 1 delete
08:45:48 51.902562 107.656998 2 688.29998779297 1.2599999904633 249.15344238281 68 1 delete
08:45:42 51.902599 107.657118 2 688.40002441406 1.0799999237061 234.76135253906 68 1 delete
08:45:37 51.902640 107.657205 1.5 688.59997558594 0.95999997854233 218.82568359375 68 1 delete
08:45:27 51.902657 107.657245 2 690.29998779297 0 0 68 1 delete
08:45:16 51.902657 107.657245 1.5 690.29998779297 0 0 68 1 delete
08:45:10 51.902635 107.657267 2 690.79998779297 0.61000001430511 306.8701171875 68 1 delete
08:45:06 51.902633 107.657307 1.5 689.90002441406 0.77999997138977 290.02258300781 68 1 delete
08:44:59 51.902602 107.657413 2 690 1.2400000095367 283.58459472656 68 1 delete
08:44:55 51.902588 107.657522 2 689.09997558594 1.5499999523163 291.52221679688 68 1 delete
08:44:53 51.902565 107.657571 2 688.59997558594 1.6699999570847 291.15417480469 68 1 delete
08:44:47 51.902507 107.657684 2 686.70001220703 1.4399999380112 314.00024414062 68 1 delete
08:44:44 51.902466 107.657731 2 685.09997558594 1.289999961853 309.51232910156 68 1 delete
08:44:41 51.902441 107.657791 2 686.09997558594 0.72999995946884 324.47570800781 68 1 delete
08:44:35 51.902354 107.657854 2 683.79998779297 1.0499999523163 316.90063476562 68 1 delete
08:44:33 51.902326 107.657879 2 683.20001220703 1.4399999380112 321.70715332031 68 1 delete
08:44:29 51.902274 107.657926 2 683.59997558594 1.4599999189377 328.26049804688 68 1 delete
08:44:23 51.902187 107.657984 2 681.79998779297 1.3199999332428 317.1533203125 68 1 delete
08:44:17 51.902103 107.658070 2 680.20001220703 1.4900000095367 324.50866699219 68 1 delete
08:44:12 51.902045 107.658105 1.5 677.79998779297 0.44999998807907 331.92993164062 68 1 delete
08:44:02 51.902038 107.658124 1.5 678.90002441406 0 0 68 1 delete
08:43:51 51.902038 107.658124 1.5 678.90002441406 0 0 68 1 delete
08:43:41 51.902038 107.658124 1.5 678.90002441406 0 0 68 1 delete
08:43:32 51.902009 107.658143 2 680.09997558594 0.89999997615814 332.99560546875 68 1 delete
08:43:30 51.901989 107.658157 2 680.20001220703 0.96999996900558 327.9638671875 68 1 delete
08:43:23 51.901927 107.658215 2 678.20001220703 1.3099999427795 332.47375488281 68 1 delete
08:43:19 51.901864 107.658256 2 676.29998779297 1.2200000286102 328.69445800781 68 1 delete
08:43:17 51.901849 107.658290 2 677.20001220703 1.1499999761581 330.53466796875 68 1 delete
08:43:11 51.901757 107.658333 2.5 674.29998779297 1.3299999237061 333.44604492188 68 1 delete
08:43:08 51.901717 107.658352 2.5 674.40002441406 1.2400000095367 333.94592285156 68 1 delete
08:43:04 51.901671 107.658379 2.5 674.40002441406 1.2799999713898 329.31518554688 68 1 delete
08:42:58 51.901592 107.658434 2.5 674.70001220703 1.4399999380112 326.97509765625 68 1 delete
08:42:57 51.901578 107.658449 2.5 675 1.5799999237061 331.32019042969 68 1 delete
08:42:51 51.901492 107.658509 2.5 675.09997558594 1.2400000095367 327.2607421875 68 1 delete
08:42:45 51.901425 107.658589 2.5 675 0.9099999666214 324.99206542969 68 1 delete
08:42:39 51.901408 107.658597 2.5 675.59997558594 0.97999995946884 316.79077148438 68 1 delete
08:42:35 51.901363 107.658645 2 675.5 1.3899999856949 325.97534179688 68 1 delete
08:42:32 51.901330 107.658685 2.5 675.70001220703 1.4399999380112 322.4267578125 68 1 delete
08:42:25 51.901254 107.658784 2 675.59997558594 1.2400000095367 327.26623535156 68 1 delete
08:42:24 51.901244 107.658797 2 675.70001220703 1.3600000143051 325.62927246094 68 1 delete
08:42:16 51.901181 107.658897 2 675.90002441406 1.4900000095367 283.32641601562 68 1 delete
08:42:12 51.901177 107.659013 2 676.59997558594 2.4800000190735 263.82568359375 68 1 delete